createdAt,value
2023-02-19T00:00:36.710Z,3.45
2023-02-19T00:02:38.830Z,3.50
2023-02-19T00:04:40.889Z,3.38
2023-02-19T00:06:43.981Z,3.53
2023-02-19T00:08:45.946Z,3.63
2023-02-19T00:10:47.991Z,3.80
2023-02-19T00:12:50.012Z,3.80
2023-02-19T00:14:52.185Z,4.10
2023-02-19T00:16:56.783Z,4.25
2023-02-19T00:19:00.743Z,4.10
2023-02-19T00:21:03.894Z,3.80
2023-02-19T00:23:05.906Z,3.90
2023-02-19T00:25:09.909Z,4.47
2023-02-19T00:27:12.812Z,4.45
2023-02-19T00:29:22.255Z,4.13
2023-02-19T00:31:33.531Z,4.43
2023-02-19T00:33:35.650Z,4.80
2023-02-19T00:35:37.965Z,3.88
2023-02-19T00:37:45.735Z,3.67
2023-02-19T00:39:47.615Z,3.30
2023-02-19T00:41:50.890Z,4.00
2023-02-19T00:43:58.244Z,4.18
2023-02-19T00:46:00.268Z,3.75
2023-02-19T00:48:02.280Z,3.20
2023-02-19T00:50:04.421Z,3.38
2023-02-19T00:52:06.368Z,3.83
2023-02-19T00:54:08.258Z,3.67
2023-02-19T00:56:11.416Z,3.72
2023-02-19T00:58:13.322Z,3.67
2023-02-19T01:00:15.443Z,3.72
2023-02-19T01:02:17.433Z,3.90
2023-02-19T01:04:19.605Z,3.50
2023-02-19T01:06:21.978Z,4.03
2023-02-19T01:08:24.178Z,3.55
2023-02-19T01:10:27.091Z,3.33
2023-02-19T01:12:29.110Z,3.80
2023-02-19T01:14:31.161Z,3.83
2023-02-19T01:16:35.215Z,3.20
2023-02-19T01:18:37.440Z,4.03
2023-02-19T01:20:44.100Z,3.65
2023-02-19T01:22:45.956Z,3.75
2023-02-19T01:24:48.010Z,3.10
2023-02-19T01:26:50.037Z,3.35
2023-02-19T01:28:52.502Z,3.55
2023-02-19T01:30:54.924Z,3.80
2023-02-19T01:32:56.961Z,3.50
2023-02-19T01:34:59.975Z,3.20
2023-02-19T01:37:02.378Z,3.30
2023-02-19T01:39:06.489Z,3.42
2023-02-19T01:41:11.281Z,3.58
2023-02-19T01:43:16.618Z,3.13
2023-02-19T01:45:26.828Z,3.80
2023-02-19T01:47:29.884Z,3.35
2023-02-19T01:49:40.391Z,3.10
2023-02-19T01:51:48.451Z,3.85
2023-02-19T01:53:57.720Z,3.33
2023-02-19T01:56:01.419Z,3.85
2023-02-19T01:58:07.192Z,3.35
2023-02-19T02:00:13.379Z,3.78
2023-02-19T02:02:15.334Z,3.33
2023-02-19T02:04:18.111Z,3.30
2023-02-19T02:06:25.193Z,4.28
2023-02-19T02:08:46.237Z,3.75
2023-02-19T02:10:48.428Z,4.00
2023-02-19T02:12:56.589Z,3.20
2023-02-19T02:14:58.573Z,4.38
2023-02-19T02:17:17.320Z,3.35
2023-02-19T02:19:48.245Z,3.35
2023-02-19T02:22:07.998Z,3.22
2023-02-19T02:24:47.563Z,3.47
2023-02-19T02:27:08.133Z,3.70
2023-02-19T02:29:09.999Z,3.58
2023-02-19T02:31:36.086Z,3.25
2023-02-19T02:33:55.539Z,3.33
2023-02-19T02:36:09.092Z,3.33
2023-02-19T02:38:13.906Z,2.90
2023-02-19T02:40:18.922Z,3.25
2023-02-19T02:42:29.812Z,3.53
2023-02-19T02:44:36.286Z,2.95
2023-02-19T02:46:42.571Z,3.10
2023-02-19T02:49:02.302Z,3.13
2023-02-19T02:51:27.062Z,2.75
2023-02-19T02:54:29.266Z,2.70
2023-02-19T02:56:33.046Z,3.55
2023-02-19T02:58:35.901Z,3.25
2023-02-19T03:00:57.869Z,2.75
2023-02-19T03:03:00.026Z,2.75
2023-02-19T03:05:32.050Z,2.38
2023-02-19T03:09:44.983Z,2.70
2023-02-19T03:12:09.717Z,2.60
2023-02-19T03:14:37.228Z,2.70
2023-02-19T03:17:00.748Z,3.05
2023-02-19T03:19:20.232Z,3.10
2023-02-19T03:21:23.661Z,3.08
2023-02-19T03:23:50.358Z,3.35
2023-02-19T03:26:04.347Z,3.55
2023-02-19T03:28:11.360Z,3.03
2023-02-19T03:30:19.491Z,3.05
2023-02-19T03:32:34.472Z,3.40
2023-02-19T03:34:44.385Z,2.83
2023-02-19T03:36:54.201Z,3.47
2023-02-19T03:39:07.941Z,3.33
2023-02-19T03:41:18.760Z,2.47
2023-02-19T03:43:56.436Z,2.70
2023-02-19T03:46:30.862Z,2.75
2023-02-19T03:48:38.628Z,2.70
2023-02-19T03:50:43.593Z,2.83
2023-02-19T03:53:04.015Z,2.95
2023-02-19T03:55:17.068Z,3.83
2023-02-19T03:57:31.605Z,2.58
2023-02-19T03:59:42.214Z,2.80
2023-02-19T04:01:56.958Z,3.58
2023-02-19T04:04:06.581Z,2.97
2023-02-19T04:06:15.476Z,2.95
2023-02-19T04:08:20.969Z,2.72
2023-02-19T04:10:24.167Z,2.78
2023-02-19T04:12:27.302Z,3.40
2023-02-19T04:14:36.710Z,3.15
2023-02-19T04:16:43.154Z,2.63
2023-02-19T04:18:49.722Z,2.88
2023-02-19T04:20:52.708Z,2.40
2023-02-19T04:22:55.300Z,3.10
2023-02-19T04:24:58.406Z,2.85
2023-02-19T04:27:01.686Z,2.72
2023-02-19T04:29:04.788Z,2.60
2023-02-19T04:31:09.401Z,3.40
2023-02-19T04:33:11.652Z,3.08
2023-02-19T04:35:13.663Z,2.42
2023-02-19T04:37:15.648Z,2.97
2023-02-19T04:39:17.602Z,2.72
2023-02-19T04:41:19.585Z,2.70
2023-02-19T04:43:21.575Z,2.90
2023-02-19T04:45:23.536Z,2.70
2023-02-19T04:47:26.590Z,2.75
2023-02-19T04:49:28.602Z,3.75
2023-02-19T04:51:30.731Z,2.85
2023-02-19T04:53:32.844Z,3.50
2023-02-19T04:55:39.250Z,3.20
2023-02-19T04:57:42.227Z,2.58
2023-02-19T04:59:44.154Z,3.13
2023-02-19T05:01:46.300Z,3.40
2023-02-19T05:03:48.277Z,3.03
2023-02-19T05:05:50.180Z,3.17
2023-02-19T05:07:52.128Z,3.15
2023-02-19T05:09:54.093Z,2.97
2023-02-19T05:11:55.941Z,3.20
2023-02-19T05:13:57.884Z,3.30
2023-02-19T05:16:02.670Z,3.17
2023-02-19T05:18:04.912Z,2.83
2023-02-19T05:20:07.357Z,3.63
2023-02-19T05:22:09.390Z,3.25
2023-02-19T05:24:11.465Z,2.95
2023-02-19T05:26:20.595Z,3.55
2023-02-19T05:28:28.835Z,3.25
2023-02-19T05:30:30.852Z,2.88
2023-02-19T05:32:35.270Z,3.10
2023-02-19T05:34:37.305Z,3.60
2023-02-19T05:36:40.142Z,3.45
2023-02-19T05:38:42.443Z,3.42
2023-02-19T05:40:47.637Z,3.35
2023-02-19T05:42:49.574Z,3.28
2023-02-19T05:44:51.489Z,3.47
2023-02-19T05:46:53.524Z,3.45
2023-02-19T05:48:56.019Z,3.95
2023-02-19T05:51:04.319Z,3.28
2023-02-19T05:53:06.550Z,3.30
2023-02-19T05:55:08.609Z,3.80
2023-02-19T05:57:10.573Z,3.90
2023-02-19T05:59:24.415Z,3.67
2023-02-19T06:01:29.081Z,3.85
2023-02-19T06:03:31.093Z,3.63
2023-02-19T06:05:33.113Z,3.40
2023-02-19T06:07:35.541Z,3.63
2023-02-19T06:09:38.484Z,3.35
2023-02-19T06:11:40.743Z,3.63
2023-02-19T06:13:42.772Z,4.15
2023-02-19T06:15:44.672Z,3.58
2023-02-19T06:17:46.607Z,4.25
2023-02-19T06:19:48.564Z,4.03
2023-02-19T06:21:51.252Z,4.50
2023-02-19T06:23:54.749Z,3.67
2023-02-19T06:26:09.548Z,4.10
2023-02-19T06:28:11.545Z,4.28
2023-02-19T06:30:13.689Z,3.90
2023-02-19T06:32:16.893Z,3.92
2023-02-19T06:34:19.042Z,3.88
2023-02-19T06:36:21.936Z,4.05
2023-02-19T06:38:23.946Z,3.92
2023-02-19T06:40:25.900Z,4.10
2023-02-19T06:42:27.923Z,4.20
2023-02-19T06:44:29.986Z,3.90
2023-02-19T06:46:31.960Z,4.45
2023-02-19T06:48:34.862Z,4.18
2023-02-19T06:50:38.851Z,3.72
2023-02-19T06:52:41.901Z,5.32
2023-02-19T06:54:43.898Z,4.22
2023-02-19T06:56:47.153Z,3.83
2023-02-19T06:58:50.346Z,4.10
2023-02-19T07:00:53.280Z,4.13
2023-02-19T07:02:56.825Z,5.20
2023-02-19T07:04:58.870Z,4.35
2023-02-19T07:07:01.854Z,4.70
2023-02-19T07:09:05.367Z,4.82
2023-02-19T07:11:07.423Z,4.63
2023-02-19T07:13:09.421Z,4.95
2023-02-19T07:15:11.760Z,5.82
2023-02-19T07:17:13.979Z,4.88
2023-02-19T07:19:16.026Z,4.97
2023-02-19T07:21:21.875Z,4.53
2023-02-19T07:23:23.804Z,4.60
2023-02-19T07:25:29.930Z,4.32
2023-02-19T07:27:32.066Z,4.35
2023-02-19T07:29:34.075Z,4.50
2023-02-19T07:31:37.124Z,8.10
2023-02-19T07:33:39.167Z,6.93
2023-02-19T07:35:51.338Z,7.57
2023-02-19T07:37:53.489Z,5.45
2023-02-19T07:39:57.366Z,5.22
2023-02-19T07:41:59.311Z,4.63
2023-02-19T07:44:03.238Z,5.68
2023-02-19T07:46:11.464Z,7.63
2023-02-19T07:48:13.566Z,7.68
2023-02-19T07:50:16.587Z,8.85
2023-02-19T07:52:18.883Z,7.15
2023-02-19T07:54:24.022Z,9.15
2023-02-19T07:56:26.059Z,7.10
2023-02-19T07:58:28.563Z,6.28
2023-02-19T08:00:30.900Z,7.75
2023-02-19T08:02:52.527Z,6.82
2023-02-19T08:04:54.440Z,5.78
2023-02-19T08:06:56.510Z,4.55
2023-02-19T08:08:58.764Z,4.70
2023-02-19T08:11:21.676Z,4.40
2023-02-19T08:13:27.469Z,4.88
2023-02-19T08:15:30.699Z,4.43
2023-02-19T08:17:32.740Z,4.95
2023-02-19T08:19:34.831Z,5.47
2023-02-19T08:21:43.212Z,4.40
2023-02-19T08:23:51.286Z,4.72
2023-02-19T08:25:57.017Z,5.30
2023-02-19T08:28:00.602Z,4.40
2023-02-19T08:30:02.809Z,5.20
2023-02-19T08:32:05.081Z,4.97
2023-02-19T08:34:07.247Z,5.13
2023-02-19T08:36:10.033Z,4.97
2023-02-19T08:38:16.515Z,4.75
2023-02-19T08:40:19.620Z,4.82
2023-02-19T08:42:21.564Z,4.72
2023-02-19T08:44:26.602Z,4.53
2023-02-19T08:46:34.424Z,5.22
2023-02-19T08:48:37.236Z,4.70
2023-02-19T08:50:40.601Z,4.53
2023-02-19T08:52:47.935Z,4.68
2023-02-19T08:54:49.887Z,4.55
2023-02-19T08:56:54.044Z,4.47
2023-02-19T08:58:57.011Z,4.60
2023-02-19T09:00:59.147Z,4.20
2023-02-19T09:03:01.095Z,4.35
2023-02-19T09:05:03.835Z,4.82
2023-02-19T09:07:08.095Z,4.40
2023-02-19T09:09:10.185Z,4.57
2023-02-19T09:11:12.447Z,4.68
2023-02-19T09:13:14.676Z,5.65
2023-02-19T09:15:16.788Z,4.50
2023-02-19T09:17:19.815Z,5.53
2023-02-19T09:19:21.825Z,5.57
2023-02-19T09:21:23.844Z,5.60
2023-02-19T09:23:25.854Z,5.10
2023-02-19T09:25:27.880Z,4.95
2023-02-19T09:27:31.955Z,3.92
2023-02-19T09:29:34.799Z,4.65
2023-02-19T09:31:36.991Z,4.57
2023-02-19T09:33:42.808Z,4.18
2023-02-19T09:35:44.752Z,4.20
2023-02-19T09:37:55.915Z,4.07
2023-02-19T09:39:57.994Z,4.10
2023-02-19T09:42:23.514Z,4.13
2023-02-19T09:44:31.079Z,4.15
2023-02-19T09:46:49.948Z,4.07
2023-02-19T09:48:56.267Z,4.45
2023-02-19T09:51:02.009Z,4.18
2023-02-19T09:53:20.499Z,3.53
2023-02-19T09:55:34.887Z,3.90
2023-02-19T09:57:44.004Z,4.15
2023-02-19T09:59:50.521Z,3.65
2023-02-19T10:02:02.482Z,3.85
2023-02-19T10:04:11.511Z,3.72
2023-02-19T10:06:32.979Z,4.75
2023-02-19T10:08:38.508Z,4.10
2023-02-19T10:10:41.734Z,4.85
2023-02-19T10:13:24.073Z,4.20
2023-02-19T10:15:35.305Z,4.07
2023-02-19T10:17:40.938Z,4.32
2023-02-19T10:19:48.113Z,4.55
2023-02-19T10:21:53.392Z,4.28
2023-02-19T10:24:01.282Z,4.55
2023-02-19T10:26:03.478Z,4.15
2023-02-19T10:28:15.024Z,4.32
2023-02-19T10:32:29.875Z,3.85
2023-02-19T10:34:33.270Z,5.28
2023-02-19T10:36:42.857Z,3.35
2023-02-19T10:38:48.393Z,3.90
2023-02-19T10:40:58.789Z,3.45
2023-02-19T10:43:04.653Z,3.67
2023-02-19T10:45:22.145Z,4.50
2023-02-19T10:47:26.747Z,3.20
2023-02-19T10:49:38.767Z,3.85
2023-02-19T10:51:42.236Z,3.50
2023-02-19T10:54:03.865Z,3.70
2023-02-19T10:56:14.931Z,4.65
2023-02-19T10:58:28.283Z,4.20
2023-02-19T11:00:31.214Z,4.80
2023-02-19T11:02:33.861Z,3.70
2023-02-19T11:04:38.409Z,3.53
2023-02-19T11:06:41.112Z,3.83
2023-02-19T11:08:57.854Z,2.95
2023-02-19T11:11:00.288Z,3.30
2023-02-19T11:13:05.175Z,3.63
2023-02-19T11:15:29.610Z,3.50
2023-02-19T11:17:32.875Z,3.75
2023-02-19T11:19:39.379Z,3.30
2023-02-19T11:21:41.572Z,3.72
2023-02-19T11:23:49.660Z,3.22
2023-02-19T11:25:57.428Z,3.88
2023-02-19T11:28:08.715Z,3.90
2023-02-19T11:30:39.127Z,3.50
2023-02-19T11:32:41.205Z,3.05
2023-02-19T11:34:43.222Z,3.40
2023-02-19T11:36:46.919Z,3.00
2023-02-19T11:38:49.129Z,3.30
2023-02-19T11:41:27.381Z,2.80
2023-02-19T11:43:35.426Z,3.47
2023-02-19T11:46:13.303Z,2.90
2023-02-19T11:48:23.582Z,3.40
2023-02-19T11:50:25.967Z,2.78
2023-02-19T11:52:51.864Z,3.00
2023-02-19T11:55:09.894Z,3.13
2023-02-19T11:57:34.336Z,3.05
2023-02-19T11:59:41.002Z,2.90
2023-02-19T12:02:27.500Z,3.47
2023-02-19T12:04:52.805Z,3.08
2023-02-19T12:07:13.377Z,2.33
2023-02-19T12:09:19.300Z,3.10
2023-02-19T12:11:54.069Z,3.20
2023-02-19T12:14:28.548Z,2.95
2023-02-19T12:16:34.764Z,2.72
2023-02-19T12:18:40.142Z,2.60
2023-02-19T12:21:05.841Z,3.15
2023-02-19T12:23:38.119Z,3.60
2023-02-19T12:25:58.810Z,3.30
2023-02-19T12:28:27.511Z,3.22
2023-02-19T12:30:49.655Z,2.65
2023-02-19T12:33:26.312Z,2.88
2023-02-19T12:35:46.897Z,2.90
2023-02-19T12:38:05.135Z,3.20
2023-02-19T12:40:34.019Z,3.00
2023-02-19T12:43:03.633Z,2.78
2023-02-19T12:45:18.367Z,3.00
2023-02-19T12:47:25.716Z,2.80
2023-02-19T12:49:40.996Z,2.75
2023-02-19T12:51:50.366Z,2.95
2023-02-19T12:54:13.829Z,3.25
2023-02-19T12:56:29.192Z,3.17
2023-02-19T12:59:03.045Z,2.97
2023-02-19T13:01:07.886Z,2.78
2023-02-19T13:03:33.060Z,2.85
2023-02-19T13:05:51.377Z,3.45
2023-02-19T13:08:26.218Z,3.47
2023-02-19T13:10:47.979Z,3.10
2023-02-19T13:15:10.415Z,3.78
2023-02-19T13:17:27.127Z,4.45
2023-02-19T13:19:32.104Z,3.75
2023-02-19T13:21:57.408Z,3.67
2023-02-19T13:24:06.989Z,3.40
2023-02-19T13:26:37.343Z,3.97
2023-02-19T13:29:10.122Z,4.38
2023-02-19T13:31:45.350Z,4.35
2023-02-19T13:34:26.395Z,3.35
2023-02-19T13:36:30.466Z,3.17
2023-02-19T13:38:42.122Z,2.85
2023-02-19T13:40:58.240Z,2.95
2023-02-19T13:43:06.190Z,3.63
2023-02-19T13:45:28.822Z,3.30
2023-02-19T13:47:50.752Z,3.20
2023-02-19T13:50:10.517Z,3.00
2023-02-19T13:52:30.776Z,2.50
2023-02-19T13:54:41.261Z,3.15
2023-02-19T13:56:44.056Z,2.10
2023-02-19T13:59:21.936Z,2.47
2023-02-19T14:01:54.130Z,3.10
2023-02-19T14:04:19.119Z,2.40
2023-02-19T14:06:22.160Z,2.40
2023-02-19T14:08:50.742Z,2.20
2023-02-19T14:11:03.064Z,2.65
2023-02-19T14:13:09.091Z,3.35
2023-02-19T14:15:49.554Z,2.55
2023-02-19T14:17:51.985Z,3.05
2023-02-19T14:19:59.645Z,3.10
2023-02-19T14:22:01.954Z,2.50
2023-02-19T14:24:05.740Z,3.17
2023-02-19T14:26:10.186Z,2.67
2023-02-19T14:28:16.755Z,2.88
2023-02-19T14:30:23.286Z,3.05
2023-02-19T14:34:31.306Z,3.34
2023-02-19T14:36:51.100Z,3.20
2023-02-19T14:39:00.541Z,2.83
2023-02-19T14:41:05.055Z,2.85
2023-02-19T14:43:18.936Z,2.33
2023-02-19T14:45:22.780Z,2.85
2023-02-19T14:47:31.524Z,2.60
2023-02-19T14:49:50.561Z,2.83
2023-02-19T14:51:58.791Z,2.60
2023-02-19T14:54:14.041Z,2.38
2023-02-19T14:56:33.099Z,2.45
2023-02-19T14:58:37.644Z,2.60
2023-02-19T15:00:45.437Z,2.78
2023-02-19T15:02:48.090Z,2.67
2023-02-19T15:04:51.967Z,2.55
2023-02-19T15:06:58.582Z,2.95
2023-02-19T15:09:07.663Z,2.53
2023-02-19T15:11:24.503Z,2.88
2023-02-19T15:13:32.337Z,3.20
2023-02-19T15:15:40.893Z,3.10
2023-02-19T15:17:43.919Z,3.53
2023-02-19T15:19:48.361Z,3.10
2023-02-19T15:21:51.683Z,3.08
2023-02-19T15:24:02.080Z,3.38
2023-02-19T15:26:06.500Z,3.60
2023-02-19T15:28:33.343Z,3.80
2023-02-19T15:30:37.257Z,4.47
2023-02-19T15:32:40.206Z,3.95
2023-02-19T15:34:55.199Z,3.88
2023-02-19T15:37:09.397Z,3.60
2023-02-19T15:39:41.101Z,4.20
2023-02-19T15:41:45.285Z,4.40
2023-02-19T15:44:11.606Z,3.60
2023-02-19T15:46:24.525Z,3.70
2023-02-19T15:48:37.520Z,3.90
2023-02-19T15:50:45.129Z,4.35
2023-02-19T15:52:59.431Z,3.78
2023-02-19T15:55:30.995Z,3.30
2023-02-19T15:57:39.836Z,3.45
2023-02-19T16:00:03.825Z,3.95
2023-02-19T16:02:16.641Z,3.63
2023-02-19T16:04:21.092Z,3.63
2023-02-19T16:06:26.061Z,4.00
2023-02-19T16:08:35.538Z,3.65
2023-02-19T16:10:39.103Z,3.50
2023-02-19T16:12:42.062Z,3.40
2023-02-19T16:14:47.798Z,3.40
2023-02-19T16:16:54.643Z,3.70
2023-02-19T16:18:58.230Z,3.75
2023-02-19T16:21:06.711Z,3.67
2023-02-19T16:23:16.567Z,4.25
2023-02-19T16:25:28.477Z,4.28
2023-02-19T16:27:35.561Z,4.40
2023-02-19T16:29:39.502Z,4.57
2023-02-19T16:32:02.267Z,4.28
2023-02-19T16:34:32.600Z,4.60
2023-02-19T16:36:42.306Z,5.30
2023-02-19T16:39:16.249Z,5.82
2023-02-19T16:41:27.712Z,6.72
2023-02-19T16:43:51.049Z,7.72
2023-02-19T16:46:00.238Z,8.25
2023-02-19T16:48:05.462Z,8.30
2023-02-19T16:50:16.761Z,8.45
2023-02-19T16:52:23.578Z,8.57
2023-02-19T16:54:26.203Z,7.28
2023-02-19T16:56:40.111Z,7.13
2023-02-19T16:58:43.799Z,5.85
2023-02-19T17:00:49.577Z,5.15
2023-02-19T17:02:57.176Z,5.90
2023-02-19T17:05:02.364Z,7.38
2023-02-19T17:07:15.526Z,8.68
2023-02-19T17:09:18.973Z,9.00
2023-02-19T17:11:21.572Z,7.75
2023-02-19T17:13:38.976Z,6.70
2023-02-19T17:15:43.383Z,6.68
2023-02-19T17:17:48.672Z,7.05
2023-02-19T17:19:55.025Z,7.03
2023-02-19T17:22:00.074Z,5.53
2023-02-19T17:24:04.400Z,6.38
2023-02-19T17:26:07.466Z,6.38
2023-02-19T17:28:11.305Z,6.00
2023-02-19T17:30:21.818Z,7.35
2023-02-19T17:32:25.173Z,7.65
2023-02-19T17:34:29.369Z,6.95
2023-02-19T17:36:34.279Z,7.65
2023-02-19T17:38:37.091Z,7.53
2023-02-19T17:40:41.362Z,6.75
2023-02-19T17:42:49.075Z,7.80
2023-02-19T17:44:53.992Z,6.25
2023-02-19T17:46:57.113Z,5.85
2023-02-19T17:49:04.034Z,7.65
2023-02-19T17:51:06.893Z,5.40
2023-02-19T17:53:10.263Z,5.82
2023-02-19T17:55:15.947Z,5.68
2023-02-19T17:57:19.517Z,6.03
2023-02-19T17:59:23.122Z,5.85
2023-02-19T18:01:26.376Z,5.35
2023-02-19T18:03:30.801Z,5.22
2023-02-19T18:05:33.976Z,6.22
2023-02-19T18:07:36.874Z,6.32
2023-02-19T18:09:41.346Z,13.07
2023-02-19T18:11:47.810Z,9.77
2023-02-19T18:13:52.963Z,9.07
2023-02-19T18:15:56.016Z,8.80
2023-02-19T18:18:01.301Z,8.65
2023-02-19T18:20:07.917Z,7.30
2023-02-19T18:22:10.969Z,6.93
2023-02-19T18:24:13.883Z,6.75
2023-02-19T18:26:21.641Z,7.63
2023-02-19T18:28:26.300Z,7.65
2023-02-19T18:30:30.682Z,6.45
2023-02-19T18:32:36.174Z,7.88
2023-02-19T18:34:39.326Z,8.00
2023-02-19T18:36:50.877Z,8.52
2023-02-19T18:38:53.845Z,8.20
2023-02-19T18:41:10.549Z,9.15
2023-02-19T18:43:16.118Z,9.05
2023-02-19T18:45:22.009Z,8.15
2023-02-19T18:47:27.890Z,7.90
2023-02-19T18:49:38.762Z,7.28
2023-02-19T18:51:41.798Z,6.47
2023-02-19T18:53:45.064Z,6.75
2023-02-19T18:55:48.035Z,6.20
2023-02-19T18:57:51.440Z,7.38
2023-02-19T18:59:55.864Z,7.55
2023-02-19T19:01:59.130Z,7.30
2023-02-19T19:04:02.565Z,7.18
2023-02-19T19:06:06.024Z,7.93
2023-02-19T19:08:09.151Z,9.27
2023-02-19T19:10:15.854Z,8.73
2023-02-19T19:12:20.168Z,9.10
2023-02-19T19:14:24.914Z,8.88
2023-02-19T19:16:30.570Z,9.20
2023-02-19T19:18:38.846Z,11.02
2023-02-19T19:20:44.261Z,12.27
2023-02-19T19:22:51.394Z,10.93
2023-02-19T19:24:58.461Z,10.50
2023-02-19T19:27:01.663Z,11.13
2023-02-19T19:29:05.193Z,9.30
2023-02-19T19:31:08.318Z,9.18
2023-02-19T19:33:12.140Z,6.15
2023-02-19T19:35:18.867Z,6.00
2023-02-19T19:37:22.136Z,6.95
2023-02-19T19:39:31.050Z,7.57
2023-02-19T19:41:34.382Z,8.85
2023-02-19T19:43:38.115Z,9.25
2023-02-19T19:45:40.919Z,10.75
2023-02-19T19:47:45.134Z,10.07
2023-02-19T19:49:50.793Z,8.50
2023-02-19T19:51:53.888Z,7.45
2023-02-19T19:53:57.037Z,7.10
2023-02-19T19:56:04.388Z,6.68
2023-02-19T19:58:07.243Z,8.38
2023-02-19T20:00:18.995Z,6.63
2023-02-19T20:02:24.798Z,5.07
2023-02-19T20:04:30.826Z,4.50
2023-02-19T20:06:34.819Z,4.65
2023-02-19T20:08:38.673Z,4.30
2023-02-19T20:10:45.958Z,4.22
2023-02-19T20:12:50.065Z,4.50
2023-02-19T20:14:53.681Z,3.90
2023-02-19T20:19:16.153Z,4.10
2023-02-19T20:21:18.946Z,4.40
2023-02-19T20:23:22.941Z,4.68
2023-02-19T20:25:25.974Z,4.80
2023-02-19T20:27:30.092Z,4.63
2023-02-19T20:29:34.995Z,4.38
2023-02-19T20:31:40.160Z,5.75
2023-02-19T20:33:44.225Z,8.13
2023-02-19T20:35:47.370Z,11.50
2023-02-19T20:37:50.330Z,13.90
2023-02-19T20:39:53.267Z,15.73
2023-02-19T20:41:59.097Z,6.15
2023-02-19T20:44:02.175Z,5.68
2023-02-19T20:46:05.189Z,5.78
2023-02-19T20:48:08.225Z,5.82
2023-02-19T20:50:19.612Z,7.20
2023-02-19T20:52:25.083Z,7.68
2023-02-19T20:54:31.790Z,8.35
2023-02-19T20:56:35.395Z,9.23
2023-02-19T20:58:37.771Z,7.22
2023-02-19T21:00:41.627Z,6.97
2023-02-19T21:02:44.735Z,6.10
2023-02-19T21:04:48.675Z,5.03
2023-02-19T21:06:52.570Z,4.18
2023-02-19T21:08:55.077Z,4.28
2023-02-19T21:10:57.990Z,4.35
2023-02-19T21:13:00.727Z,3.70
2023-02-19T21:15:03.671Z,4.43
2023-02-19T21:17:08.760Z,3.70
2023-02-19T21:19:11.686Z,3.83
2023-02-19T21:21:20.855Z,3.92
2023-02-19T21:23:24.592Z,4.18
2023-02-19T21:25:27.501Z,4.07
2023-02-19T21:27:29.766Z,3.97
2023-02-19T21:29:32.192Z,4.00
2023-02-19T21:31:44.155Z,4.30
2023-02-19T21:33:49.688Z,4.88
2023-02-19T21:35:52.950Z,4.95
2023-02-19T21:37:57.742Z,5.28
2023-02-19T21:40:01.539Z,4.95
2023-02-19T21:42:10.465Z,4.15
2023-02-19T21:44:17.088Z,4.20
2023-02-19T21:46:20.749Z,4.30
2023-02-19T21:48:23.213Z,6.70
2023-02-19T21:50:25.414Z,4.95
2023-02-19T21:52:35.597Z,5.35
2023-02-19T21:54:38.725Z,5.18
2023-02-19T21:56:42.412Z,5.80
2023-02-19T21:58:45.876Z,5.72
2023-02-19T22:00:48.135Z,6.72
2023-02-19T22:02:50.674Z,6.72
2023-02-19T22:04:54.597Z,5.63
2023-02-19T22:06:57.258Z,5.88
2023-02-19T22:09:00.667Z,7.43
2023-02-19T22:11:02.588Z,7.85
2023-02-19T22:13:04.640Z,6.60
2023-02-19T22:15:09.471Z,4.75
2023-02-19T22:17:12.741Z,5.90
2023-02-19T22:19:18.800Z,6.85
2023-02-19T22:21:22.480Z,8.32
2023-02-19T22:23:24.496Z,9.25
2023-02-19T22:25:26.559Z,7.93
2023-02-19T22:27:29.653Z,7.43
2023-02-19T22:29:31.751Z,7.68
2023-02-19T22:31:35.934Z,8.77
2023-02-19T22:33:38.023Z,8.30
2023-02-19T22:35:41.463Z,6.95
2023-02-19T22:37:44.458Z,5.90
2023-02-19T22:39:46.453Z,4.88
2023-02-19T22:41:51.830Z,5.13
2023-02-19T22:43:57.936Z,5.18
2023-02-19T22:45:59.994Z,5.20
2023-02-19T22:48:02.011Z,5.10
2023-02-19T22:50:07.676Z,4.95
2023-02-19T22:52:10.573Z,4.72
2023-02-19T22:54:12.597Z,5.03
2023-02-19T22:56:17.160Z,4.72
2023-02-19T22:58:19.124Z,4.93
2023-02-19T23:00:22.001Z,4.53
2023-02-19T23:02:24.018Z,5.20
2023-02-19T23:04:26.740Z,4.97
2023-02-19T23:06:31.791Z,5.18
2023-02-19T23:08:33.694Z,5.05
2023-02-19T23:10:35.699Z,5.43
2023-02-19T23:12:38.522Z,4.90
2023-02-19T23:14:41.556Z,5.57
2023-02-19T23:16:43.685Z,4.97
2023-02-19T23:18:46.429Z,5.22
2023-02-19T23:20:50.344Z,5.05
2023-02-19T23:22:59.047Z,4.93
2023-02-19T23:25:01.726Z,5.32
2023-02-19T23:27:03.774Z,5.60
2023-02-19T23:29:05.734Z,5.03
2023-02-19T23:31:08.154Z,4.65
2023-02-19T23:33:10.152Z,4.57
2023-02-19T23:35:12.129Z,5.13
2023-02-19T23:37:15.270Z,4.32
2023-02-19T23:39:20.564Z,4.70
2023-02-19T23:41:23.577Z,4.45
2023-02-19T23:43:26.533Z,4.72
2023-02-19T23:45:31.424Z,4.53
2023-02-19T23:47:33.416Z,5.75
2023-02-19T23:49:36.630Z,5.00
2023-02-19T23:51:38.643Z,5.07
2023-02-19T23:53:40.693Z,5.10
2023-02-19T23:55:42.834Z,5.15
2023-02-19T23:57:44.777Z,4.47
2023-02-19T23:59:49.351Z,4.88
